createdAt,value
2018-02-13T00:00:54.630Z,0.85
2018-02-13T00:01:54.678Z,0.86
2018-02-13T00:02:54.614Z,0.83
2018-02-13T00:03:54.609Z,0.85
2018-02-13T00:04:54.660Z,0.83
2018-02-13T00:05:54.698Z,0.83
2018-02-13T00:06:54.609Z,0.79
2018-02-13T00:07:54.717Z,0.79
2018-02-13T00:08:54.619Z,0.78
2018-02-13T00:12:54.755Z,0.69
2018-02-13T00:13:55.217Z,0.69
2018-02-13T00:14:55.589Z,0.68
2018-02-13T00:15:54.573Z,0.69
2018-02-13T00:16:54.550Z,0.72
2018-02-13T00:17:54.556Z,0.74
2018-02-13T00:18:54.562Z,0.75
2018-02-13T00:19:54.559Z,0.74
2018-02-13T00:20:54.891Z,0.75
2018-02-13T00:21:54.714Z,0.78
2018-02-13T00:22:54.553Z,0.78
2018-02-13T00:23:54.555Z,0.75
2018-02-13T00:24:54.561Z,0.78
2018-02-13T00:25:54.560Z,0.75
2018-02-13T00:26:54.559Z,0.74
2018-02-13T00:27:54.639Z,0.74
2018-02-13T00:28:54.567Z,0.72
2018-02-13T00:29:54.554Z,0.76
2018-02-13T00:30:54.555Z,0.75
2018-02-13T00:31:54.557Z,0.76
2018-02-13T00:32:54.675Z,0.78
2018-02-13T00:33:55.089Z,0.78
2018-02-13T00:34:54.560Z,0.81
2018-02-13T00:35:55.045Z,0.82
2018-02-13T00:36:54.570Z,0.79
2018-02-13T00:37:54.562Z,0.82
2018-02-13T00:38:54.566Z,0.81
2018-02-13T00:39:54.677Z,0.82
2018-02-13T00:40:54.574Z,0.78
2018-02-13T00:41:54.771Z,0.79
2018-02-13T00:42:54.901Z,0.76
2018-02-13T00:43:54.741Z,0.75
2018-02-13T00:44:54.625Z,0.76
2018-02-13T00:45:54.566Z,0.75
2018-02-13T00:46:54.467Z,0.76
2018-02-13T00:47:54.466Z,0.75
2018-02-13T00:48:54.473Z,0.76
2018-02-13T00:49:54.478Z,0.76
2018-02-13T00:50:54.464Z,0.76
2018-02-13T00:51:54.468Z,0.75
2018-02-13T00:52:54.480Z,0.78
2018-02-13T00:53:54.511Z,0.78
2018-02-13T00:54:54.516Z,0.76
2018-02-13T00:55:54.485Z,0.78
2018-02-13T00:56:54.476Z,0.79
2018-02-13T00:57:54.468Z,0.76
2018-02-13T00:58:54.478Z,0.79
2018-02-13T00:59:54.864Z,0.81
2018-02-13T01:00:54.481Z,0.81
2018-02-13T01:01:54.508Z,0.79
2018-02-13T01:02:54.467Z,0.79
2018-02-13T01:03:54.475Z,0.78
2018-02-13T01:04:54.497Z,0.78
2018-02-13T01:05:54.480Z,0.79
2018-02-13T01:06:54.485Z,0.81
2018-02-13T01:07:54.487Z,0.78
2018-02-13T01:08:54.491Z,0.79
2018-02-13T01:09:54.487Z,0.81
2018-02-13T01:10:54.499Z,0.78
2018-02-13T01:11:54.480Z,0.81
2018-02-13T01:12:54.473Z,0.78
2018-02-13T01:13:54.486Z,0.78
2018-02-13T01:14:54.480Z,0.79
2018-02-13T01:15:54.501Z,0.79
2018-02-13T01:16:54.494Z,0.78
2018-02-13T01:17:54.322Z,0.79
2018-02-13T01:18:54.334Z,0.78
2018-02-13T01:19:54.336Z,0.78
2018-02-13T01:20:54.362Z,0.75
2018-02-13T01:21:54.393Z,0.75
2018-02-13T01:22:54.330Z,0.76
2018-02-13T01:23:54.337Z,0.75
2018-02-13T01:24:54.338Z,0.76
2018-02-13T01:25:54.339Z,0.75
2018-02-13T01:26:54.337Z,0.74
2018-02-13T01:27:54.330Z,0.75
2018-02-13T01:28:54.335Z,0.74
2018-02-13T01:29:54.329Z,0.75
2018-02-13T01:30:54.331Z,0.72
2018-02-13T01:31:54.344Z,0.74
2018-02-13T01:32:54.674Z,0.74
2018-02-13T01:33:54.794Z,0.71
2018-02-13T01:34:54.340Z,0.74
2018-02-13T01:35:55.321Z,0.72
2018-02-13T01:36:54.351Z,0.72
2018-02-13T01:37:54.337Z,0.71
2018-02-13T01:38:54.340Z,0.69
2018-02-13T01:42:06.364Z,0.68
2018-02-13T01:42:54.336Z,0.65
2018-02-13T01:43:54.550Z,0.65
2018-02-13T01:44:54.337Z,0.64
2018-02-13T01:45:54.342Z,0.64
2018-02-13T01:46:54.337Z,0.67
2018-02-13T01:47:54.344Z,0.65
2018-02-13T01:48:54.183Z,0.67
2018-02-13T01:49:54.199Z,0.64
2018-02-13T01:50:54.188Z,0.64
2018-02-13T01:51:54.333Z,0.64
2018-02-13T01:52:54.179Z,0.65
2018-02-13T01:53:54.338Z,0.64
2018-02-13T01:54:54.240Z,0.65
2018-02-13T01:55:54.188Z,0.63
2018-02-13T01:56:54.183Z,0.63
2018-02-13T01:57:54.191Z,0.63
2018-02-13T02:00:28.029Z,0.6
2018-02-13T02:00:54.348Z,0.63
2018-02-13T02:01:54.489Z,0.63
2018-02-13T02:02:54.192Z,0.63
2018-02-13T02:03:54.196Z,0.61
2018-02-13T02:04:54.197Z,0.61
2018-02-13T02:05:54.186Z,0.58
2018-02-13T02:06:54.191Z,0.58
2018-02-13T02:07:54.180Z,0.61
2018-02-13T02:08:54.624Z,0.58
2018-02-13T02:09:54.382Z,0.58
2018-02-13T02:10:54.193Z,0.57
2018-02-13T02:11:54.185Z,0.57
2018-02-13T02:12:54.429Z,0.58
2018-02-13T02:13:54.183Z,0.58
2018-02-13T02:14:54.337Z,0.6
2018-02-13T02:15:54.182Z,0.61
2018-02-13T02:16:54.209Z,0.6
2018-02-13T02:17:54.202Z,0.58
2018-02-13T02:18:54.190Z,0.55
2018-02-13T02:19:54.151Z,0.48
2018-02-13T02:20:54.107Z,0.47
2018-02-13T02:21:54.149Z,0.46
2018-02-13T02:22:54.119Z,0.47
2018-02-13T02:23:54.121Z,0.48
2018-02-13T02:24:54.111Z,0.47
2018-02-13T02:25:54.154Z,0.48
2018-02-13T02:26:54.105Z,0.47
2018-02-13T02:27:54.115Z,0.48
2018-02-13T02:28:54.127Z,0.48
2018-02-13T02:29:54.162Z,0.48
2018-02-13T02:30:54.130Z,0.48
2018-02-13T02:31:54.115Z,0.48
2018-02-13T02:32:54.112Z,0.51
2018-02-13T02:33:54.112Z,0.5
2018-02-13T02:34:54.133Z,0.5
2018-02-13T02:35:54.125Z,0.48
2018-02-13T02:36:54.106Z,0.47
2018-02-13T02:37:54.109Z,0.46
2018-02-13T02:38:54.113Z,0.44
2018-02-13T02:39:54.114Z,0.46
2018-02-13T02:40:54.180Z,0.44
2018-02-13T02:41:54.212Z,0.44
2018-02-13T02:42:54.128Z,0.43
2018-02-13T02:43:54.135Z,0.41
2018-02-13T02:44:54.124Z,0.44
2018-02-13T02:45:54.139Z,0.43
2018-02-13T02:46:54.107Z,0.41
2018-02-13T02:47:54.151Z,0.43
2018-02-13T02:48:54.119Z,0.38
2018-02-13T02:49:54.132Z,0.4
2018-02-13T02:50:53.997Z,0.36
2018-02-13T02:51:53.988Z,0.34
2018-02-13T02:52:53.987Z,0.34
2018-02-13T02:53:53.989Z,0.34
2018-02-13T02:54:53.992Z,0.34
2018-02-13T02:55:54.167Z,0.33
2018-02-13T02:56:53.970Z,0.36
2018-02-13T02:57:53.973Z,0.36
2018-02-13T02:58:53.977Z,0.34
2018-02-13T02:59:53.980Z,0.33
2018-02-13T03:00:54.001Z,0.33
2018-02-13T03:01:53.983Z,0.34
2018-02-13T03:02:53.986Z,0.33
2018-02-13T03:03:53.991Z,0.3
2018-02-13T03:04:53.981Z,0.3
2018-02-13T03:05:54.001Z,0.29
2018-02-13T03:06:53.976Z,0.29
2018-02-13T03:07:54.121Z,0.27
2018-02-13T03:10:21.011Z,0.23
2018-02-13T03:10:53.969Z,0.23
2018-02-13T03:11:53.975Z,0.26
2018-02-13T03:12:53.994Z,0.26
2018-02-13T03:13:54.047Z,0.27
2018-02-13T03:14:53.968Z,0.27
2018-02-13T03:15:53.977Z,0.29
2018-02-13T03:16:53.990Z,0.3
2018-02-13T03:18:02.022Z,0.27
2018-02-13T03:18:54.040Z,0.32
2018-02-13T03:19:54.033Z,0.34
2018-02-13T03:20:53.973Z,0.33
2018-02-13T03:21:53.810Z,0.32
2018-02-13T03:22:53.806Z,0.3
2018-02-13T03:23:53.804Z,0.29
2018-02-13T03:24:53.800Z,0.3
2018-02-13T03:25:53.802Z,0.3
2018-02-13T03:26:53.812Z,0.29
2018-02-13T03:27:53.873Z,0.3
2018-02-13T03:28:53.807Z,0.29
2018-02-13T03:29:53.807Z,0.3
2018-02-13T03:30:53.837Z,0.27
2018-02-13T03:31:53.823Z,0.26
2018-02-13T03:32:53.847Z,0.29
2018-02-13T03:33:53.805Z,0.26
2018-02-13T03:34:53.812Z,0.23
2018-02-13T03:35:53.834Z,0.23
2018-02-13T03:36:53.827Z,0.18
2018-02-13T03:37:53.811Z,0.15
2018-02-13T03:38:53.841Z,0.18
2018-02-13T03:39:53.831Z,0.18
2018-02-13T03:40:53.832Z,0.15
2018-02-13T03:41:53.832Z,0.13
2018-02-13T03:42:53.815Z,0.16
2018-02-13T03:43:53.850Z,0.12
2018-02-13T03:44:53.835Z,0.12
2018-02-13T03:45:53.820Z,0.12
2018-02-13T03:46:53.832Z,0.08
2018-02-13T03:47:53.833Z,0.08
2018-02-13T03:48:53.852Z,0.12
2018-02-13T03:49:53.822Z,0.1
2018-02-13T03:50:53.825Z,0.1
2018-02-13T03:51:53.833Z,0.1
2018-02-13T03:52:54.649Z,0.12
2018-02-13T03:53:54.963Z,0.1
2018-02-13T03:54:54.658Z,0.12
2018-02-13T03:55:54.654Z,0.1
2018-02-13T03:56:54.646Z,0.13
2018-02-13T03:57:54.655Z,0.1
2018-02-13T03:58:54.678Z,0.13
2018-02-13T03:59:54.649Z,0.08
2018-02-13T04:00:54.662Z,0.09
2018-02-13T04:01:54.650Z,0.09
2018-02-13T04:02:54.669Z,0.09
2018-02-13T04:03:54.680Z,0.08
2018-02-13T04:04:54.668Z,0.08
2018-02-13T04:05:54.654Z,0.03
2018-02-13T04:06:54.660Z,0.03
2018-02-13T04:07:54.661Z,0.02
2018-02-13T04:08:54.667Z,-0.01
2018-02-13T04:09:54.662Z,-0.04
2018-02-13T04:10:54.661Z,-0.08
2018-02-13T04:11:54.693Z,-0.08
2018-02-13T04:12:54.665Z,-0.08
2018-02-13T04:13:54.687Z,-0.11
2018-02-13T04:14:54.651Z,-0.12
2018-02-13T04:15:54.668Z,-0.12
2018-02-13T04:16:54.678Z,-0.14
2018-02-13T04:17:54.676Z,-0.12
2018-02-13T04:18:54.701Z,-0.17
2018-02-13T04:19:54.685Z,-0.17
2018-02-13T04:20:54.671Z,-0.18
2018-02-13T04:21:54.681Z,-0.18
2018-02-13T04:22:54.499Z,-0.19
2018-02-13T04:23:54.619Z,-0.17
2018-02-13T04:24:54.505Z,-0.18
2018-02-13T04:25:54.501Z,-0.19
2018-02-13T04:26:54.512Z,-0.21
2018-02-13T04:27:54.501Z,-0.21
2018-02-13T04:28:54.523Z,-0.19
2018-02-13T04:29:54.497Z,-0.21
2018-02-13T04:30:54.507Z,-0.18
2018-02-13T04:31:54.523Z,-0.17
2018-02-13T04:32:54.517Z,-0.19
2018-02-13T04:33:54.625Z,-0.19
2018-02-13T04:34:54.509Z,-0.21
2018-02-13T04:35:54.500Z,-0.22
2018-02-13T04:36:54.515Z,-0.19
2018-02-13T04:37:54.503Z,-0.18
2018-02-13T04:38:54.541Z,-0.17
2018-02-13T04:39:54.523Z,-0.19
2018-02-13T04:40:54.782Z,-0.21
2018-02-13T04:41:54.516Z,-0.23
2018-02-13T04:42:54.521Z,-0.17
2018-02-13T04:43:54.531Z,-0.15
2018-02-13T04:44:54.515Z,-0.18
2018-02-13T04:45:54.534Z,-0.19
2018-02-13T04:46:54.510Z,-0.22
2018-02-13T04:47:54.521Z,-0.23
2018-02-13T04:48:54.510Z,-0.26
2018-02-13T04:49:54.515Z,-0.23
2018-02-13T04:50:54.527Z,-0.21
2018-02-13T04:51:54.508Z,-0.22
2018-02-13T04:52:54.514Z,-0.21
2018-02-13T04:53:54.354Z,-0.19
2018-02-13T04:54:54.353Z,-0.21
2018-02-13T04:55:54.730Z,-0.17
2018-02-13T04:56:54.352Z,-0.17
2018-02-13T04:57:54.339Z,-0.15
2018-02-13T04:58:54.355Z,-0.17
2018-02-13T04:59:54.356Z,-0.17
2018-02-13T05:00:54.396Z,-0.15
2018-02-13T05:01:54.356Z,-0.15
2018-02-13T05:02:54.368Z,-0.11
2018-02-13T05:03:54.357Z,-0.11
2018-02-13T05:04:54.367Z,-0.08
2018-02-13T05:05:54.755Z,-0.08
2018-02-13T05:06:54.352Z,-0.02
2018-02-13T05:07:54.354Z,-0.04
2018-02-13T05:08:54.353Z,-0.02
2018-02-13T05:09:54.356Z,-0.04
2018-02-13T05:10:54.402Z,-0.01
2018-02-13T05:11:54.367Z,-0.01
2018-02-13T05:12:54.357Z,0.02
2018-02-13T05:13:54.372Z,0.05
2018-02-13T05:14:54.362Z,0.02
2018-02-13T05:15:54.358Z,0.06
2018-02-13T05:16:54.365Z,0.08
2018-02-13T05:17:54.395Z,0.09
2018-02-13T05:18:54.376Z,0.08
2018-02-13T05:19:54.363Z,0.03
2018-02-13T05:20:54.376Z,0.02
2018-02-13T05:21:54.368Z,0.02
2018-02-13T05:22:54.382Z,0.02
2018-02-13T05:23:54.364Z,0.01
2018-02-13T05:24:54.205Z,0.01
2018-02-13T05:25:54.224Z,0.03
2018-02-13T05:26:54.210Z,0.03
2018-02-13T05:28:54.209Z,0.02
2018-02-13T05:29:54.209Z,0.01
2018-02-13T05:30:54.212Z,0.02
2018-02-13T05:31:54.197Z,0.03
2018-02-13T05:32:54.232Z,0.02
2018-02-13T05:33:54.248Z,0.03
2018-02-13T05:34:54.218Z,0.03
2018-02-13T05:35:54.197Z,0.06
2018-02-13T05:36:54.208Z,0.06
2018-02-13T05:37:54.241Z,0.03
2018-02-13T05:38:54.218Z,0.08
2018-02-13T05:39:54.209Z,0.09
2018-02-13T05:40:54.227Z,0.08
2018-02-13T05:41:54.218Z,0.06
2018-02-13T05:42:54.228Z,0.05
2018-02-13T05:43:54.203Z,0.05
2018-02-13T05:44:54.212Z,0.05
2018-02-13T05:45:54.213Z,0.05
2018-02-13T05:46:54.226Z,0.03
2018-02-13T05:47:54.212Z,0.02
2018-02-13T05:48:54.239Z,0.02
2018-02-13T05:49:54.237Z,-0.02
2018-02-13T05:50:54.259Z,0.02
2018-02-13T05:51:54.214Z,-0.02
2018-02-13T05:52:54.226Z,-0.02
2018-02-13T05:53:54.217Z,0.01
2018-02-13T05:54:54.232Z,-0.02
2018-02-13T05:55:54.109Z,-0.02
2018-02-13T05:56:54.104Z,-0.02
2018-02-13T06:00:22.118Z,-0.02
2018-02-13T06:00:54.114Z,-0.02
2018-02-13T06:01:54.251Z,-0.01
2018-02-13T06:02:54.145Z,0.02
2018-02-13T06:03:54.107Z,0.01
2018-02-13T06:04:54.102Z,0.02
2018-02-13T06:05:54.100Z,0.02
2018-02-13T06:06:54.231Z,0.05
2018-02-13T06:07:54.100Z,0.05
2018-02-13T06:08:54.115Z,0.03
2018-02-13T06:09:54.110Z,0.02
2018-02-13T06:10:54.121Z,0.03
2018-02-13T06:11:54.117Z,-0.01
2018-02-13T06:12:54.115Z,0.02
2018-02-13T06:13:54.100Z,0.03
2018-02-13T06:14:54.099Z,0.05
2018-02-13T06:15:54.114Z,0.08
2018-02-13T06:16:54.100Z,0.1
2018-02-13T06:17:54.120Z,0.1
2018-02-13T06:18:54.111Z,0.08
2018-02-13T06:19:54.141Z,0.06
2018-02-13T06:20:54.155Z,0.06
2018-02-13T06:21:54.098Z,0.06
2018-02-13T06:22:54.103Z,0.08
2018-02-13T06:23:54.106Z,0.06
2018-02-13T06:24:54.123Z,0.08
2018-02-13T06:25:54.102Z,0.03
2018-02-13T06:26:53.965Z,0.05
2018-02-13T06:27:53.927Z,0.03
2018-02-13T06:28:53.945Z,0.03
2018-02-13T06:29:53.944Z,0.05
2018-02-13T06:30:53.953Z,0.01
2018-02-13T06:31:53.950Z,0.01
2018-02-13T06:32:53.947Z,0.02
2018-02-13T06:33:53.948Z,-0.01
2018-02-13T06:34:53.951Z,-0.01
2018-02-13T06:35:53.945Z,0.05
2018-02-13T06:36:53.944Z,0.02
2018-02-13T06:37:53.954Z,0.05
2018-02-13T06:38:54.120Z,0.05
2018-02-13T06:39:54.016Z,0.06
2018-02-13T06:40:53.959Z,0.02
2018-02-13T06:41:53.961Z,0.03
2018-02-13T06:42:54.009Z,0.02
2018-02-13T06:43:53.953Z,0.01
2018-02-13T06:44:53.980Z,0.05
2018-02-13T06:45:53.954Z,0.03
2018-02-13T06:46:53.954Z,0.02
2018-02-13T06:47:53.957Z,-0.01
2018-02-13T06:48:53.966Z,0.01
2018-02-13T06:49:53.971Z,-0.01
2018-02-13T06:50:53.960Z,-0.04
2018-02-13T06:51:53.947Z,0.01
2018-02-13T06:52:53.956Z,-0.01
2018-02-13T06:53:53.965Z,-0.02
2018-02-13T06:54:53.949Z,-0.02
2018-02-13T06:55:53.948Z,0.01
2018-02-13T06:56:54.071Z,0.01
2018-02-13T06:57:53.886Z,0.01
2018-02-13T06:58:53.951Z,0.02
2018-02-13T06:59:53.903Z,0.01
2018-02-13T07:00:53.913Z,-0.01
2018-02-13T07:01:53.919Z,0.02
2018-02-13T07:02:53.894Z,0.02
2018-02-13T07:03:53.896Z,0.03
2018-02-13T07:04:53.903Z,0.05
2018-02-13T07:05:53.890Z,0.05
2018-02-13T07:06:53.891Z,0.03
2018-02-13T07:07:53.895Z,0.03
2018-02-13T07:08:53.909Z,0.02
2018-02-13T07:09:53.883Z,0.01
2018-02-13T07:10:53.895Z,0.01
2018-02-13T07:11:53.886Z,0.01
2018-02-13T07:12:53.897Z,0.05
2018-02-13T07:13:53.890Z,0.06
2018-02-13T07:14:53.889Z,0.05
2018-02-13T07:15:53.898Z,0.05
2018-02-13T07:16:53.968Z,0.08
2018-02-13T07:17:53.903Z,0.06
2018-02-13T07:18:53.901Z,0.08
2018-02-13T07:19:53.914Z,0.06
2018-02-13T07:20:53.921Z,0.09
2018-02-13T07:21:53.929Z,0.1
2018-02-13T07:22:53.904Z,0.13
2018-02-13T07:23:53.907Z,0.15
2018-02-13T07:24:53.911Z,0.19
2018-02-13T07:25:53.895Z,0.19
2018-02-13T07:26:53.901Z,0.2
2018-02-13T07:27:53.894Z,0.19
2018-02-13T07:28:53.775Z,0.16
2018-02-13T07:29:53.789Z,0.22
2018-02-13T07:30:53.766Z,0.19
2018-02-13T07:31:53.793Z,0.25
2018-02-13T07:32:53.776Z,0.25
2018-02-13T07:33:53.773Z,0.26
2018-02-13T07:34:53.776Z,0.26
2018-02-13T07:35:53.786Z,0.27
2018-02-13T07:36:53.790Z,0.27
2018-02-13T07:37:53.777Z,0.29
2018-02-13T07:38:53.794Z,0.32
2018-02-13T07:39:53.818Z,0.3
2018-02-13T07:40:53.887Z,0.33
2018-02-13T07:41:53.781Z,0.33
2018-02-13T07:42:53.774Z,0.36
2018-02-13T07:43:53.781Z,0.37
2018-02-13T07:44:53.785Z,0.36
2018-02-13T07:45:53.801Z,0.37
2018-02-13T07:46:53.804Z,0.37
2018-02-13T07:47:53.772Z,0.36
2018-02-13T07:48:53.776Z,0.37
2018-02-13T07:49:53.782Z,0.38
2018-02-13T07:50:53.784Z,0.41
2018-02-13T07:51:53.781Z,0.44
2018-02-13T07:52:53.770Z,0.44
2018-02-13T07:53:53.775Z,0.43
2018-02-13T07:54:53.785Z,0.47
2018-02-13T07:55:53.796Z,0.47
2018-02-13T07:56:53.778Z,0.44
2018-02-13T07:57:53.843Z,0.48
2018-02-13T07:58:53.784Z,0.48
2018-02-13T07:59:54.609Z,0.48
2018-02-13T08:00:54.892Z,0.5
2018-02-13T08:01:54.601Z,0.51
2018-02-13T08:02:54.596Z,0.51
2018-02-13T08:03:54.615Z,0.54
2018-02-13T08:04:54.604Z,0.53
2018-02-13T08:05:54.625Z,0.53
2018-02-13T08:06:54.602Z,0.54
2018-02-13T08:07:54.737Z,0.54
2018-02-13T08:08:54.652Z,0.53
2018-02-13T08:09:54.742Z,0.55
2018-02-13T08:10:54.605Z,0.57
2018-02-13T08:11:54.597Z,0.58
2018-02-13T08:12:54.600Z,0.58
2018-02-13T08:13:54.599Z,0.58
2018-02-13T08:14:54.604Z,0.61
2018-02-13T08:15:54.595Z,0.58
2018-02-13T08:16:54.601Z,0.58
2018-02-13T08:17:54.600Z,0.6
2018-02-13T08:18:54.601Z,0.64
2018-02-13T08:19:54.602Z,0.64
2018-02-13T08:20:54.604Z,0.65
2018-02-13T08:21:54.597Z,0.64
2018-02-13T08:22:54.607Z,0.64
2018-02-13T08:23:54.630Z,0.64
2018-02-13T08:24:54.599Z,0.61
2018-02-13T08:25:54.603Z,0.61
2018-02-13T08:26:54.609Z,0.64
2018-02-13T08:27:54.663Z,0.6
2018-02-13T08:28:54.627Z,0.58
2018-02-13T08:29:54.512Z,0.61
2018-02-13T08:30:54.510Z,0.63
2018-02-13T08:31:54.520Z,0.63
2018-02-13T08:32:54.503Z,0.64
2018-02-13T08:33:54.513Z,0.67
2018-02-13T08:34:54.507Z,0.68
2018-02-13T08:35:54.511Z,0.69
2018-02-13T08:36:54.505Z,0.68
2018-02-13T08:37:54.521Z,0.72
2018-02-13T08:38:54.525Z,0.72
2018-02-13T08:39:54.522Z,0.74
2018-02-13T08:40:54.510Z,0.74
2018-02-13T08:41:54.514Z,0.78
2018-02-13T08:42:54.521Z,0.76
2018-02-13T08:43:54.589Z,0.79
2018-02-13T08:44:54.535Z,0.81
2018-02-13T08:45:54.519Z,0.82
2018-02-13T08:46:54.529Z,0.85
2018-02-13T08:47:54.513Z,0.91
2018-02-13T08:48:54.508Z,0.92
2018-02-13T08:49:54.583Z,0.96
2018-02-13T08:50:54.519Z,0.96
2018-02-13T08:51:54.534Z,0.98
2018-02-13T08:52:54.510Z,0.96
2018-02-13T08:53:54.516Z,1
2018-02-13T08:54:54.559Z,0.98
2018-02-13T08:55:54.526Z,1.03
2018-02-13T08:56:54.516Z,1.07
2018-02-13T08:57:54.531Z,1.07
2018-02-13T08:58:54.568Z,1.06
2018-02-13T08:59:54.527Z,1.1
2018-02-13T09:00:54.369Z,1.1
2018-02-13T09:01:54.381Z,1.09
2018-02-13T09:02:54.404Z,1.15
2018-02-13T09:03:54.376Z,1.13
2018-02-13T09:04:54.384Z,1.13
2018-02-13T09:05:54.388Z,1.13
2018-02-13T09:06:54.551Z,1.13
2018-02-13T09:07:54.374Z,1.13
2018-02-13T09:08:54.388Z,1.13
2018-02-13T09:09:54.378Z,1.11
2018-02-13T09:10:54.380Z,1.15
2018-02-13T09:11:54.402Z,1.11
2018-02-13T09:12:54.396Z,1.16
2018-02-13T09:13:54.383Z,1.16
2018-02-13T09:14:54.406Z,1.17
2018-02-13T09:15:54.376Z,1.19
2018-02-13T09:16:54.406Z,1.19
2018-02-13T09:17:54.433Z,1.2
2018-02-13T09:18:54.396Z,1.2
2018-02-13T09:19:54.388Z,1.27
2018-02-13T09:20:54.394Z,1.33
2018-02-13T09:21:54.382Z,1.33
2018-02-13T09:22:54.392Z,1.36
2018-02-13T09:23:54.444Z,1.38
2018-02-13T09:24:54.385Z,1.44
2018-02-13T09:25:54.379Z,1.47
2018-02-13T09:26:54.385Z,1.47
2018-02-13T09:27:54.396Z,1.54
2018-02-13T09:28:54.378Z,1.59
2018-02-13T09:29:54.771Z,1.68
2018-02-13T09:30:54.612Z,1.72
2018-02-13T09:31:54.601Z,1.72
2018-02-13T09:32:54.607Z,1.71
2018-02-13T09:33:54.617Z,1.69
2018-02-13T09:34:54.645Z,1.68
2018-02-13T09:35:54.604Z,1.62
2018-02-13T09:36:54.611Z,1.64
2018-02-13T09:37:54.603Z,1.61
2018-02-13T09:38:54.611Z,1.59
2018-02-13T09:39:54.639Z,1.57
2018-02-13T09:40:54.613Z,1.54
2018-02-13T09:41:54.611Z,1.53
2018-02-13T09:42:54.616Z,1.55
2018-02-13T09:43:54.620Z,1.55
2018-02-13T09:44:54.608Z,1.58
2018-02-13T09:45:54.894Z,1.55
2018-02-13T09:46:54.601Z,1.57
2018-02-13T09:47:54.607Z,1.59
2018-02-13T09:48:54.614Z,1.62
2018-02-13T09:49:54.674Z,1.64
2018-02-13T09:50:54.643Z,1.65
2018-02-13T09:51:54.610Z,1.68
2018-02-13T09:52:54.612Z,1.76
2018-02-13T09:53:54.611Z,1.79
2018-02-13T09:54:54.617Z,1.82
2018-02-13T09:55:54.652Z,1.87
2018-02-13T09:56:54.629Z,1.86
2018-02-13T09:57:54.619Z,1.89
2018-02-13T09:58:54.604Z,1.9
2018-02-13T09:59:54.618Z,1.99
2018-02-13T10:00:54.649Z,2
2018-02-13T10:01:54.504Z,2.03
2018-02-13T10:02:54.469Z,2.06
2018-02-13T10:03:54.496Z,2.13
2018-02-13T10:04:54.485Z,2.16
2018-02-13T10:05:54.504Z,2.16
2018-02-13T10:06:54.485Z,2.18
2018-02-13T10:07:54.482Z,2.21
2018-02-13T10:08:54.473Z,2.27
2018-02-13T10:09:54.500Z,2.33
2018-02-13T10:10:54.517Z,2.4
2018-02-13T10:11:54.485Z,2.47
2018-02-13T10:12:54.487Z,2.51
2018-02-13T10:13:54.481Z,2.56
2018-02-13T10:14:54.487Z,2.64
2018-02-13T10:15:54.489Z,2.76
2018-02-13T10:16:54.475Z,2.77
2018-02-13T10:17:54.476Z,2.84
2018-02-13T10:18:54.473Z,2.8
2018-02-13T10:19:54.485Z,2.84
2018-02-13T10:20:54.479Z,2.92
2018-02-13T10:21:54.510Z,2.93
2018-02-13T10:22:54.491Z,2.97
2018-02-13T10:23:54.485Z,3.03
2018-02-13T10:24:54.498Z,3.08
2018-02-13T10:25:54.497Z,3.08
2018-02-13T10:26:54.497Z,3.11
2018-02-13T10:27:54.560Z,3.15
2018-02-13T10:28:54.582Z,3.17
2018-02-13T10:29:54.571Z,3.15
2018-02-13T10:30:54.581Z,3.17
2018-02-13T10:31:54.692Z,3.14
2018-02-13T10:32:53.816Z,3.18
2018-02-13T10:33:53.826Z,3.22
2018-02-13T10:34:53.836Z,3.28
2018-02-13T10:35:53.836Z,3.35
2018-02-13T10:36:53.847Z,3.42
2018-02-13T10:37:53.845Z,3.42
2018-02-13T10:38:53.828Z,3.41
2018-02-13T10:39:53.816Z,3.45
2018-02-13T10:40:53.864Z,3.45
2018-02-13T10:41:53.814Z,3.54
2018-02-13T10:42:53.826Z,3.59
2018-02-13T10:43:53.828Z,3.67
2018-02-13T10:44:53.823Z,3.73
2018-02-13T10:45:53.848Z,3.73
2018-02-13T10:46:53.843Z,3.72
2018-02-13T10:47:53.840Z,3.74
2018-02-13T10:48:53.837Z,3.74
2018-02-13T10:49:53.825Z,3.79
2018-02-13T10:50:53.864Z,3.8
2018-02-13T10:51:53.841Z,3.79
2018-02-13T10:52:53.830Z,3.9
2018-02-13T10:54:53.853Z,3.93
2018-02-13T10:55:53.847Z,3.8
2018-02-13T10:56:53.815Z,3.86
2018-02-13T10:57:53.826Z,3.86
2018-02-13T10:58:53.830Z,3.94
2018-02-13T10:59:53.839Z,4.08
2018-02-13T11:00:53.849Z,4.11
2018-02-13T11:01:53.847Z,4.14
2018-02-13T11:02:53.832Z,4.18
2018-02-13T11:03:53.666Z,4.19
2018-02-13T11:04:53.670Z,4.19
2018-02-13T11:05:53.776Z,4.22
2018-02-13T11:06:53.840Z,4.18
2018-02-13T11:07:53.664Z,4.21
2018-02-13T11:08:53.669Z,4.17
2018-02-13T11:09:53.662Z,4.21
2018-02-13T11:10:53.708Z,4.12
2018-02-13T11:11:53.692Z,4.1
2018-02-13T11:12:53.665Z,4.02
2018-02-13T11:13:53.648Z,3.93
2018-02-13T11:14:53.793Z,3.94
2018-02-13T11:15:53.682Z,3.9
2018-02-13T11:16:53.659Z,3.93
2018-02-13T11:17:53.656Z,3.93
2018-02-13T11:18:53.666Z,3.98
2018-02-13T11:19:53.678Z,4.02
2018-02-13T11:20:53.652Z,4.11
2018-02-13T11:21:53.666Z,4.21
2018-02-13T11:22:53.668Z,4.28
2018-02-13T11:23:53.672Z,4.33
2018-02-13T11:24:53.682Z,4.45
2018-02-13T11:25:53.652Z,4.56
2018-02-13T11:26:53.696Z,4.73
2018-02-13T11:27:53.673Z,4.76
2018-02-13T11:28:53.661Z,4.76
2018-02-13T11:29:53.668Z,4.8
2018-02-13T11:30:53.662Z,4.91
2018-02-13T11:31:53.649Z,4.94
2018-02-13T11:32:53.657Z,4.97
2018-02-13T11:33:53.661Z,5.01
2018-02-13T11:34:54.528Z,5.07
2018-02-13T11:35:54.527Z,5.14
2018-02-13T11:36:54.513Z,5.14
2018-02-13T11:37:54.493Z,5.15
2018-02-13T11:38:54.512Z,5.18
2018-02-13T11:39:54.540Z,5.21
2018-02-13T11:40:54.497Z,5.28
2018-02-13T11:41:54.489Z,5.28
2018-02-13T11:42:54.493Z,5.3
2018-02-13T11:43:54.486Z,5.33
2018-02-13T11:44:54.494Z,5.35
2018-02-13T11:45:54.502Z,5.35
2018-02-13T11:46:54.508Z,5.4
2018-02-13T11:47:54.499Z,5.36
2018-02-13T11:48:54.510Z,5.26
2018-02-13T11:49:54.498Z,5.23
2018-02-13T11:50:54.500Z,5.19
2018-02-13T11:51:54.851Z,5.23
2018-02-13T11:52:54.510Z,5.32
2018-02-13T11:53:58.763Z,5.36
2018-02-13T11:54:57.660Z,5.45
2018-02-13T11:55:55.141Z,5.45
2018-02-13T11:56:54.643Z,5.46
2018-02-13T11:57:54.504Z,5.42
2018-02-13T11:58:54.494Z,5.38
2018-02-13T11:59:54.573Z,5.4
2018-02-13T12:00:54.506Z,5.49
2018-02-13T12:01:54.522Z,5.4
2018-02-13T12:02:54.508Z,5.49
2018-02-13T12:03:54.531Z,5.57
2018-02-13T12:04:53.667Z,5.53
2018-02-13T12:05:53.713Z,5.57
2018-02-13T12:06:53.669Z,5.6
2018-02-13T12:07:53.649Z,5.62
2018-02-13T12:08:53.681Z,5.69
2018-02-13T12:09:53.669Z,5.73
2018-02-13T12:10:53.670Z,5.74
2018-02-13T12:11:53.682Z,5.74
2018-02-13T12:12:53.654Z,5.78
2018-02-13T12:13:54.093Z,5.84
2018-02-13T12:14:53.718Z,5.83
2018-02-13T12:15:53.673Z,5.81
2018-02-13T12:16:53.652Z,5.81
2018-02-13T12:17:53.661Z,5.8
2018-02-13T12:18:53.671Z,5.77
2018-02-13T12:19:53.652Z,5.84
2018-02-13T12:20:53.659Z,5.84
2018-02-13T12:21:53.643Z,5.87
2018-02-13T12:22:53.671Z,5.8
2018-02-13T12:23:53.692Z,5.81
2018-02-13T12:24:53.660Z,5.88
2018-02-13T12:25:53.654Z,5.92
2018-02-13T12:26:53.661Z,5.94
2018-02-13T12:27:53.649Z,5.95
2018-02-13T12:28:53.682Z,5.95
2018-02-13T12:29:53.664Z,5.98
2018-02-13T12:30:53.670Z,5.98
2018-02-13T12:31:53.655Z,6.02
2018-02-13T12:32:53.657Z,6.08
2018-02-13T12:33:53.682Z,6.09
2018-02-13T12:34:53.679Z,6.13
2018-02-13T12:35:54.539Z,6.13
2018-02-13T12:36:54.544Z,6.15
2018-02-13T12:37:54.518Z,6.12
2018-02-13T12:38:54.518Z,6.13
2018-02-13T12:39:54.529Z,6.11
2018-02-13T12:40:54.518Z,6.12
2018-02-13T12:41:54.522Z,6.13
2018-02-13T12:42:54.666Z,6.23
2018-02-13T12:43:54.535Z,6.25
2018-02-13T12:44:54.917Z,6.25
2018-02-13T12:45:54.519Z,6.33
2018-02-13T12:46:54.529Z,6.19
2018-02-13T12:47:54.530Z,6.25
2018-02-13T12:48:54.642Z,6.22
2018-02-13T12:49:54.542Z,6.2
2018-02-13T12:50:54.524Z,6.25
2018-02-13T12:51:54.551Z,6.22
2018-02-13T12:52:54.516Z,6.25
2018-02-13T12:53:54.520Z,6.26
2018-02-13T12:54:54.552Z,6.2
2018-02-13T12:55:54.538Z,6.12
2018-02-13T12:56:54.524Z,6.09
2018-02-13T12:57:54.593Z,6.19
2018-02-13T12:58:54.534Z,6.18
2018-02-13T12:59:54.551Z,6.19
2018-02-13T13:00:54.548Z,6.25
2018-02-13T13:01:54.531Z,6.16
2018-02-13T13:02:54.526Z,6.15
2018-02-13T13:03:54.541Z,6.19
2018-02-13T13:04:54.547Z,6.22
2018-02-13T13:05:54.400Z,6.13
2018-02-13T13:06:54.409Z,6.04
2018-02-13T13:07:54.449Z,6
2018-02-13T13:08:54.400Z,6
2018-02-13T13:09:54.433Z,6.06
2018-02-13T13:10:54.785Z,6.15
2018-02-13T13:11:54.391Z,6.11
2018-02-13T13:12:54.409Z,6.02
2018-02-13T13:13:54.400Z,6.05
2018-02-13T13:14:54.471Z,6.06
2018-02-13T13:15:54.413Z,6.08
2018-02-13T13:16:54.397Z,6.06
2018-02-13T13:17:54.498Z,6.12
2018-02-13T13:18:54.394Z,6.09
2018-02-13T13:19:54.440Z,6.12
2018-02-13T13:20:54.425Z,6.06
2018-02-13T13:23:03.401Z,6.16
2018-02-13T13:23:54.403Z,6.2
2018-02-13T13:24:54.403Z,6.13
2018-02-13T13:25:54.414Z,6.16
2018-02-13T13:26:54.404Z,6.09
2018-02-13T13:27:54.413Z,6.09
2018-02-13T13:28:54.415Z,6.13
2018-02-13T13:29:54.482Z,6.16